Time;durP1;ratioP1;P1;durP2;ratioP2;P2;SDS_P1;SDS_P2;PMS_P1;PMS_P2;Temp;Humidity;BMP_temperature;BMP_pressure;BME280_temperature;BME280_humidity;BME280_pressure;Samples;Min_cycle;Max_cycle;Signal;HPM_P1;HPM_P2
2024/01/09 00:01:09;;;;;;;12.98;9.18;;;;;;;-0.42;65.63;93777.41;4996504;28;20043;-76
2024/01/09 00:03:34;;;;;;;11.15;9.48;;;;;;;-0.51;65.12;93754.34;4997267;28;20516;-75
2024/01/09 00:06:00;;;;;;;12.23;9.18;;;;;;;-0.49;64.92;93764.56;4979623;28;20043;-75
2024/01/09 00:08:25;;;;;;;10.98;8.30;;;;;;;-0.61;65.18;93756.06;4960936;28;20027;-75
2024/01/09 00:10:51;;;;;;;12.80;9.75;;;;;;;-0.56;66.04;93774.41;5075137;28;20056;-74
2024/01/09 00:13:16;;;;;;;12.02;9.68;;;;;;;-0.48;66.20;93779.19;5078732;28;20529;-75
2024/01/09 00:15:42;;;;;;;10.68;8.38;;;;;;;-0.64;65.64;93759.97;5080094;28;20112;-74
2024/01/09 00:18:07;;;;;;;11.30;8.45;;;;;;;-0.46;65.54;93756.22;5064302;28;20528;-76
2024/01/09 00:20:33;;;;;;;14.15;9.63;;;;;;;-0.30;65.13;93770.25;5076268;28;20063;-74
2024/01/09 00:22:58;;;;;;;10.95;7.90;;;;;;;-0.11;64.79;93785.34;5065860;28;20051;-74
2024/01/09 00:25:24;;;;;;;11.80;8.82;;;;;;;-0.25;64.04;93771.09;5059642;28;20097;-75
2024/01/09 00:27:49;;;;;;;15.57;10.02;;;;;;;-0.32;63.83;93770.47;5079609;28;20063;-74
2024/01/09 00:30:14;;;;;;;11.18;8.60;;;;;;;-0.47;64.75;93777.38;5065000;28;20100;-75
2024/01/09 00:32:40;;;;;;;15.40;9.90;;;;;;;-0.54;65.47;93783.59;5078168;28;20059;-74
2024/01/09 00:35:06;;;;;;;14.77;8.93;;;;;;;-0.83;66.03;93765.75;5098840;28;20051;-76
2024/01/09 00:37:39;;;;;;;16.35;10.30;;;;;;;-0.82;66.48;93777.75;5062904;28;20070;-75
2024/01/09 00:40:06;;;;;;;13.20;9.38;;;;;;;-0.49;66.19;93787.28;5080658;28;20048;-75
2024/01/09 00:42:31;;;;;;;11.15;8.93;;;;;;;-0.39;65.42;93793.41;5077753;28;20074;-74
2024/01/09 00:45:00;;;;;;;10.90;8.68;;;;;;;-0.55;65.01;93783.81;5059735;28;20048;-74
2024/01/09 00:47:26;;;;;;;10.25;8.35;;;;;;;-0.57;65.01;93791.09;5082268;28;20201;-74
2024/01/09 00:49:51;;;;;;;12.15;9.00;;;;;;;-0.56;64.80;93790.09;5077464;28;20530;-74
2024/01/09 00:52:17;;;;;;;10.73;9.52;;;;;;;-0.43;63.77;93815.81;5080047;28;20048;-75
2024/01/09 00:54:43;;;;;;;11.50;9.13;;;;;;;-0.56;63.89;93782.25;5086926;28;20048;-76
2024/01/09 00:57:09;;;;;;;12.05;8.80;;;;;;;-0.37;64.04;93801.00;5078233;28;20123;-76
2024/01/09 00:59:34;;;;;;;14.23;9.52;;;;;;;-0.15;63.42;93823.47;5074979;28;21597;-74
2024/01/09 01:02:00;;;;;;;11.88;9.57;;;;;;;-0.45;62.98;93797.00;5060239;28;20465;-74
2024/01/09 01:04:25;;;;;;;12.43;9.23;;;;;;;-0.31;62.92;93800.03;5075382;28;20036;-75
2024/01/09 01:06:50;;;;;;;11.98;9.27;;;;;;;-0.23;62.62;93795.13;5074620;28;20036;-74
2024/01/09 01:09:16;;;;;;;12.55;9.50;;;;;;;-0.34;62.71;93806.53;5064516;28;20036;-74
2024/01/09 01:11:41;;;;;;;13.48;10.13;;;;;;;-0.09;62.87;93822.47;5078205;28;20063;-75
2024/01/09 01:14:06;;;;;;;12.73;9.35;;;;;;;-0.10;62.82;93797.38;5067201;28;20058;-75
2024/01/09 01:16:32;;;;;;;11.35;9.13;;;;;;;-0.14;62.54;93811.19;5081328;28;20048;-75
2024/01/09 01:18:57;;;;;;;15.85;11.07;;;;;;;-0.59;64.32;93808.88;5076635;28;20032;-74
2024/01/09 01:21:23;;;;;;;14.23;9.90;;;;;;;-0.69;64.83;93799.09;5075571;28;20059;-75
2024/01/09 01:23:49;;;;;;;11.10;8.73;;;;;;;-0.28;64.36;93836.09;5075245;28;20036;-75
2024/01/09 01:26:14;;;;;;;14.32;10.18;;;;;;;-0.30;63.71;93812.06;5067179;28;20028;-75
2024/01/09 01:28:40;;;;;;;13.07;9.90;;;;;;;-0.30;63.82;93832.97;5078435;28;20062;-75
2024/01/09 01:31:06;;;;;;;12.52;9.95;;;;;;;-0.33;63.80;93792.41;5083024;28;20028;-74
2024/01/09 01:33:31;;;;;;;15.60;10.52;;;;;;;-0.29;62.70;93777.84;5081218;28;20070;-75
2024/01/09 01:35:56;;;;;;;17.25;10.60;;;;;;;0.01;62.65;93832.22;5084958;28;20108;-76
2024/01/09 01:38:22;;;;;;;14.45;10.05;;;;;;;0.06;62.13;93826.25;5070030;28;20028;-74
2024/01/09 01:40:47;;;;;;;13.38;10.07;;;;;;;-0.24;62.83;93813.69;5064714;28;20066;-75
2024/01/09 01:43:13;;;;;;;11.23;8.77;;;;;;;-0.07;62.85;93832.69;5082560;28;20048;-75
2024/01/09 01:45:38;;;;;;;13.02;9.18;;;;;;;-0.23;63.55;93829.13;5061617;28;20063;-75
2024/01/09 01:48:04;;;;;;;13.57;10.20;;;;;;;0.05;62.61;93824.69;5078528;28;20067;-75
2024/01/09 01:50:41;;;;;;;14.88;10.52;;;;;;;0.00;62.04;93833.28;5066847;28;20086;-74
2024/01/09 01:53:07;;;;;;;15.25;9.35;;;;;;;-0.09;62.37;93835.53;5076198;28;20020;-74
2024/01/09 01:55:34;;;;;;;12.68;9.43;;;;;;;-0.51;62.99;93811.84;5082332;28;20043;-74
2024/01/09 01:58:00;;;;;;;13.00;8.77;;;;;;;-0.46;63.87;93836.44;5088695;28;20091;-76
2024/01/09 02:00:27;;;;;;;16.90;10.75;;;;;;;-0.51;63.62;93811.03;5087374;28;20051;-74
2024/01/09 02:02:53;;;;;;;11.18;9.07;;;;;;;-0.57;64.22;93825.06;5068116;28;20033;-75
2024/01/09 02:05:21;;;;;;;13.25;9.90;;;;;;;-0.68;64.09;93846.91;5069714;28;20051;-75
2024/01/09 02:07:50;;;;;;;13.38;10.10;;;;;;;-0.73;64.52;93836.38;5085028;28;20052;-75
2024/01/09 02:10:16;;;;;;;11.13;9.35;;;;;;;-0.42;63.59;93827.06;5070735;28;20071;-74
2024/01/09 02:12:42;;;;;;;12.30;10.00;;;;;;;-0.28;62.80;93836.09;5082765;28;20490;-74
2024/01/09 02:15:08;;;;;;;12.85;9.40;;;;;;;-0.07;62.41;93836.09;5078919;28;20853;-74
2024/01/09 02:17:34;;;;;;;18.20;12.13;;;;;;;-0.08;61.73;93842.34;5080176;28;20078;-75
2024/01/09 02:19:59;;;;;;;19.30;15.02;;;;;;;-0.15;62.28;93848.81;5063661;28;20025;-74
2024/01/09 02:22:25;;;;;;;20.20;14.35;;;;;;;-0.17;61.77;93828.13;5003363;28;20027;-75
2024/01/09 02:24:50;;;;;;;24.67;15.52;;;;;;;0.16;61.39;93837.59;5043985;28;20039;-74
2024/01/09 02:27:26;;;;;;;16.98;10.63;;;;;;;0.25;61.15;93835.34;5087679;28;20032;-75
2024/01/09 02:29:52;;;;;;;11.93;9.43;;;;;;;-0.10;61.19;93839.22;5079314;28;20044;-75
2024/01/09 02:32:19;;;;;;;12.55;9.85;;;;;;;-0.12;61.89;93846.50;5071014;28;20024;-74
2024/01/09 02:34:46;;;;;;;14.55;9.85;;;;;;;-0.07;62.38;93849.16;5066252;28;20054;-74
2024/01/09 02:37:11;;;;;;;18.77;12.98;;;;;;;-0.16;62.03;93827.09;5084427;27;20604;-74
2024/01/09 02:39:37;;;;;;;14.00;10.73;;;;;;;0.18;61.58;93845.22;5084638;28;20048;-74
2024/01/09 02:42:03;;;;;;;9.90;7.45;;;;;;;0.12;61.48;93822.66;5084752;28;20033;-75
2024/01/09 02:44:28;;;;;;;13.45;10.70;;;;;;;0.03;61.33;93837.22;5075862;28;20024;-74
2024/01/09 02:46:54;;;;;;;12.80;8.90;;;;;;;0.24;61.45;93852.88;5076644;28;20025;-75
2024/01/09 02:49:19;;;;;;;11.77;9.68;;;;;;;0.03;61.80;93856.31;5080540;28;20161;-74
2024/01/09 02:51:45;;;;;;;12.02;8.10;;;;;;;0.09;60.93;93823.16;5076178;28;23113;-73
2024/01/09 02:54:10;;;;;;;8.90;7.53;;;;;;;0.16;61.16;93836.81;5065895;28;20704;-74
2024/01/09 02:56:37;;;;;;;10.48;7.80;;;;;;;0.19;60.93;93831.91;5062654;28;20020;-74
2024/01/09 02:59:03;;;;;;;11.13;8.38;;;;;;;0.18;61.49;93846.00;5075820;28;20044;-74
2024/01/09 03:01:28;;;;;;;10.90;7.78;;;;;;;0.11;61.49;93834.16;5079234;28;20042;-76
2024/01/09 03:03:53;;;;;;;9.13;6.68;;;;;;;0.11;61.41;93849.84;5062547;28;20041;-75
2024/01/09 03:06:19;;;;;;;9.55;7.25;;;;;;;-0.23;62.41;93823.88;5057379;28;20032;-74
2024/01/09 03:08:44;;;;;;;8.43;6.70;;;;;;;0.08;61.67;93819.75;5074686;28;20024;-73
2024/01/09 03:11:10;;;;;;;7.80;6.25;;;;;;;0.14;60.77;93828.44;5079447;28;20473;-74
2024/01/09 03:13:35;;;;;;;7.13;5.78;;;;;;;0.17;60.34;93833.16;5075432;28;20444;-74
2024/01/09 03:16:10;;;;;;;6.68;5.47;;;;;;;0.14;61.04;93834.47;5078336;28;20036;-75
2024/01/09 03:18:35;;;;;;;;;;;;;;;0.27;60.86;93856.81;5086125;28;20052;-76
2024/01/09 03:21:01;;;;;;;7.40;5.90;;;;;;;0.18;60.91;93860.91;5053288;28;20165;-78
2024/01/09 03:23:27;;;;;;;8.05;6.10;;;;;;;0.18;61.47;93863.53;5036130;28;20072;-76
2024/01/09 03:25:52;;;;;;;7.47;5.95;;;;;;;0.31;61.42;93860.50;5039009;28;20040;-76
2024/01/09 03:28:17;;;;;;;7.65;5.82;;;;;;;0.42;60.39;93864.78;5053535;28;20044;-76
2024/01/09 03:30:43;;;;;;;6.15;5.20;;;;;;;0.36;60.07;93863.16;5053699;28;20567;-76
2024/01/09 03:33:08;;;;;;;7.03;6.00;;;;;;;0.30;60.55;93848.47;5039055;28;20059;-75
2024/01/09 03:35:34;;;;;;;5.75;5.20;;;;;;;0.07;61.15;93864.44;5052864;28;20024;-75
2024/01/09 03:38:00;;;;;;;7.75;6.32;;;;;;;-0.26;61.62;93868.81;5046541;28;20497;-75
2024/01/09 03:40:25;;;;;;;6.65;5.68;;;;;;;0.02;61.56;93872.25;5048875;28;20048;-76
2024/01/09 03:42:51;;;;;;;8.70;6.55;;;;;;;0.18;60.36;93829.53;5034230;28;20598;-76
2024/01/09 03:45:16;;;;;;;7.57;5.38;;;;;;;0.41;60.09;93870.25;5032027;28;20690;-75
2024/01/09 03:47:41;;;;;;;8.15;4.93;;;;;;;0.41;59.61;93860.59;5049517;28;20111;-76
2024/01/09 03:50:07;;;;;;;6.07;4.88;;;;;;;0.24;59.65;93849.47;5052114;28;20172;-75
2024/01/09 03:52:33;;;;;;;5.90;4.75;;;;;;;0.41;59.69;93875.50;5043691;28;20040;-75
2024/01/09 03:54:58;;;;;;;6.97;4.63;;;;;;;0.21;59.85;93870.88;5049244;28;20089;-75
2024/01/09 03:57:23;;;;;;;6.03;4.60;;;;;;;0.31;59.67;93865.72;5026172;28;20636;-75
2024/01/09 03:59:49;;;;;;;6.03;4.53;;;;;;;0.31;59.60;93870.97;5029485;28;20036;-77
2024/01/09 04:02:14;;;;;;;6.10;5.40;;;;;;;-0.11;60.77;93869.00;5051665;28;20039;-77
2024/01/09 04:04:40;;;;;;;5.50;4.80;;;;;;;0.07;60.62;93898.44;5049639;28;20875;-77
2024/01/09 04:07:05;;;;;;;7.88;5.55;;;;;;;0.11;61.49;93907.38;5049498;28;20159;-77
2024/01/09 04:09:30;;;;;;;8.43;6.72;;;;;;;0.05;60.86;93905.75;5047059;28;20520;-76
2024/01/09 04:11:56;;;;;;;8.48;5.57;;;;;;;-0.48;62.40;93864.66;5050902;28;20497;-78
2024/01/09 04:14:21;;;;;;;11.82;6.93;;;;;;;-0.39;62.63;93879.66;5036639;28;20473;-78
2024/01/09 04:16:47;;;;;;;10.05;6.40;;;;;;;-0.27;63.25;93897.81;5031861;28;20418;-75
2024/01/09 04:19:12;;;;;;;9.30;6.68;;;;;;;-0.67;62.96;93916.34;5048883;28;20061;-77
2024/01/09 04:21:38;;;;;;;9.43;6.38;;;;;;;-0.34;62.88;93926.75;5053446;28;20047;-78
2024/01/09 04:24:03;;;;;;;8.90;6.70;;;;;;;-0.04;62.22;93930.75;5030245;28;20044;-75
2024/01/09 04:26:29;;;;;;;6.97;6.10;;;;;;;0.15;61.64;93929.41;5055551;28;20032;-76
2024/01/09 04:28:54;;;;;;;7.45;6.00;;;;;;;0.03;61.17;93903.38;5035771;28;20131;-77
2024/01/09 04:31:24;;;;;;;9.10;6.63;;;;;;;0.28;60.68;93929.00;5058274;28;20037;-77
2024/01/09 04:33:50;;;;;;;8.15;6.95;;;;;;;0.42;60.21;93934.66;5043784;28;20205;-77
2024/01/09 04:36:19;;;;;;;10.23;6.80;;;;;;;0.24;59.81;93914.84;5051497;28;20044;-78
2024/01/09 04:38:47;;;;;;;8.85;6.10;;;;;;;-0.25;60.92;93911.44;5047826;28;20036;-77
2024/01/09 04:41:16;;;;;;;6.65;4.93;;;;;;;-0.84;62.38;93947.75;5053299;28;20151;-77
2024/01/09 04:43:44;;;;;;;8.68;5.97;;;;;;;-0.36;62.33;93949.72;5052024;28;20048;-77
2024/01/09 04:46:10;;;;;;;7.28;6.55;;;;;;;-0.10;60.83;93930.72;5064951;28;20047;-74
2024/01/09 04:48:35;;;;;;;13.55;8.82;;;;;;;0.12;60.37;93950.81;5041841;28;20044;-77
2024/01/09 04:51:01;;;;;;;12.57;7.72;;;;;;;0.11;60.21;93936.94;5011969;28;20045;-76
2024/01/09 04:53:27;;;;;;;14.00;8.60;;;;;;;0.02;59.32;93917.47;5008384;28;21141;-74
2024/01/09 04:55:52;;;;;;;12.82;8.68;;;;;;;0.06;59.80;93962.22;5010215;28;20060;-77
2024/01/09 04:58:17;;;;;;;12.48;8.52;;;;;;;-0.12;59.79;93964.13;5010285;28;20176;-77
2024/01/09 05:00:43;;;;;;;10.88;6.78;;;;;;;-0.30;60.41;93938.28;5015583;28;20045;-76
2024/01/09 05:03:08;;;;;;;8.43;6.43;;;;;;;-0.01;59.82;93974.72;5027622;28;20075;-77
2024/01/09 05:05:33;;;;;;;6.65;5.55;;;;;;;-0.31;60.86;93983.75;5032110;28;20035;-78
2024/01/09 05:07:59;;;;;;;5.88;5.20;;;;;;;-0.29;60.17;93931.25;5028056;28;20064;-77
2024/01/09 05:10:24;;;;;;;5.88;4.72;;;;;;;-0.09;59.29;93928.84;5032299;28;20551;-76
2024/01/09 05:12:50;;;;;;;5.55;4.53;;;;;;;-0.13;59.12;93928.56;5013846;28;20053;-76
2024/01/09 05:15:15;;;;;;;6.50;4.65;;;;;;;0.09;59.28;93946.06;5019673;28;20572;-76
2024/01/09 05:17:40;;;;;;;5.53;4.40;;;;;;;0.16;58.11;93921.31;5022262;28;20656;-77
2024/01/09 05:20:06;;;;;;;5.18;4.35;;;;;;;0.25;56.02;93898.13;5034393;28;20081;-77
2024/01/09 05:22:35;;;;;;;4.60;4.13;;;;;;;0.24;56.31;93930.56;5025618;28;20064;-77
2024/01/09 05:25:03;;;;;;;5.50;4.30;;;;;;;0.25;56.71;93939.97;5036029;28;20037;-78
2024/01/09 05:27:28;;;;;;;6.78;4.55;;;;;;;0.33;57.20;93952.63;5040059;28;20902;-78
2024/01/09 05:29:54;;;;;;;6.13;4.53;;;;;;;0.27;58.16;93948.34;5025913;28;20033;-78
2024/01/09 05:32:19;;;;;;;6.60;4.53;;;;;;;0.40;57.72;93952.44;5028857;28;20033;-78
2024/01/09 05:34:44;;;;;;;4.22;3.47;;;;;;;0.42;57.67;93972.06;5025603;28;20136;-77
2024/01/09 05:37:10;;;;;;;4.72;4.20;;;;;;;0.01;56.93;93949.13;5027646;28;20065;-78
2024/01/09 05:39:35;;;;;;;4.63;3.90;;;;;;;-0.25;56.57;93959.28;5019750;28;20509;-76
2024/01/09 05:42:00;;;;;;;3.75;3.33;;;;;;;-0.18;57.38;93965.09;5028612;28;20052;-76
2024/01/09 05:44:27;;;;;;;3.50;3.22;;;;;;;0.08;57.19;93976.66;5005845;28;20413;-76
2024/01/09 05:46:53;;;;;;;4.88;4.13;;;;;;;-0.03;57.85;93972.34;5026735;28;20045;-76
2024/01/09 05:49:19;;;;;;;5.60;4.95;;;;;;;-0.27;58.59;93973.59;5018206;28;20044;-76
2024/01/09 05:51:44;;;;;;;7.72;4.45;;;;;;;-0.32;59.05;93995.22;5013996;28;20045;-76
2024/01/09 05:54:10;;;;;;;4.35;3.95;;;;;;;-0.64;58.64;94002.09;4983579;28;20126;-76
2024/01/09 05:56:35;;;;;;;5.72;4.13;;;;;;;-0.58;59.00;93995.94;4920719;28;20110;-76
2024/01/09 05:59:04;;;;;;;6.53;4.40;;;;;;;-1.29;60.78;94012.25;5012801;28;20053;-77
2024/01/09 06:01:29;;;;;;;3.95;3.55;;;;;;;-1.50;62.58;94011.09;5021256;28;20124;-79
2024/01/09 06:03:55;;;;;;;5.03;4.28;;;;;;;-1.36;61.33;94001.94;5031595;28;20055;-78
2024/01/09 06:06:20;;;;;;;5.78;4.22;;;;;;;-0.97;60.81;94037.59;5027711;28;20675;-76
2024/01/09 06:08:48;;;;;;;6.95;4.55;;;;;;;-1.61;61.28;94040.63;5032749;28;20132;-78
2024/01/09 06:11:14;;;;;;;4.68;4.10;;;;;;;-1.52;62.05;94047.06;5031118;28;20041;-77
2024/01/09 06:13:39;;;;;;;5.32;4.80;;;;;;;-1.82;62.94;94042.84;5038035;28;20137;-77
2024/01/09 06:16:06;;;;;;;6.40;4.20;;;;;;;-2.16;63.21;94042.91;5033532;28;20502;-78
2024/01/09 06:18:31;;;;;;;5.07;4.00;;;;;;;-1.91;63.65;94079.94;5027292;28;20342;-78
2024/01/09 06:20:57;;;;;;;5.88;4.95;;;;;;;-1.33;62.68;94092.03;5028540;28;20086;-76
2024/01/09 06:23:22;;;;;;;5.07;4.28;;;;;;;-1.66;61.92;94090.09;5025592;28;20390;-76
2024/01/09 06:25:48;;;;;;;4.68;4.25;;;;;;;-1.94;62.63;94109.84;5016312;28;20534;-76
2024/01/09 06:28:13;;;;;;;4.97;4.50;;;;;;;-2.61;65.20;94094.75;5011025;28;20403;-76
2024/01/09 06:30:38;;;;;;;6.57;4.90;;;;;;;-2.92;66.37;94075.81;5009586;28;20148;-75
2024/01/09 06:33:04;;;;;;;7.28;5.88;;;;;;;-2.90;68.38;94099.81;5011776;28;20040;-75
2024/01/09 06:35:29;;;;;;;8.40;6.20;;;;;;;-3.00;70.00;94112.56;5010995;28;20061;-76
2024/01/09 06:37:55;;;;;;;8.52;6.95;;;;;;;-2.81;70.52;94142.72;5011109;28;20406;-76
2024/01/09 06:40:20;;;;;;;11.57;7.03;;;;;;;-3.19;73.11;94157.84;5010734;28;20049;-76
2024/01/09 06:42:46;;;;;;;11.75;6.75;;;;;;;-3.21;74.28;94162.47;5011492;28;20060;-76
2024/01/09 06:45:14;;;;;;;11.88;6.97;;;;;;;-3.80;72.61;94168.34;5009506;28;20044;-76
2024/01/09 06:47:41;;;;;;;7.70;5.90;;;;;;;-3.98;74.08;94178.72;5013966;28;20536;-77
2024/01/09 06:50:06;;;;;;;7.43;5.65;;;;;;;-3.92;76.75;94177.88;5008314;28;20064;-70
2024/01/09 06:52:32;;;;;;;7.93;6.53;;;;;;;-3.84;74.28;94180.97;5015006;28;20032;-71
2024/01/09 06:54:57;;;;;;;10.80;6.57;;;;;;;-4.05;73.66;94165.81;5005606;28;20398;-70
2024/01/09 06:57:23;;;;;;;9.35;6.90;;;;;;;-3.86;73.61;94192.63;4999970;28;20044;-71
2024/01/09 06:59:48;;;;;;;8.10;6.82;;;;;;;-3.96;76.45;94215.69;5003912;28;20045;-71
2024/01/09 07:02:13;;;;;;;8.30;6.70;;;;;;;-3.94;74.68;94222.25;5018447;28;20060;-69
2024/01/09 07:04:39;;;;;;;8.25;6.45;;;;;;;-3.82;74.54;94212.75;5008619;28;20635;-69
2024/01/09 07:07:04;;;;;;;9.27;7.15;;;;;;;-3.52;73.59;94220.66;5011271;28;20837;-69
2024/01/09 07:09:30;;;;;;;6.88;6.18;;;;;;;-3.16;72.58;94217.25;5003017;28;20033;-69
2024/01/09 07:11:55;;;;;;;7.40;6.47;;;;;;;-2.63;70.68;94219.19;5007859;28;20607;-70
2024/01/09 07:14:21;;;;;;;9.90;7.10;;;;;;;-2.81;69.81;94218.22;5008274;28;20052;-70
2024/01/09 07:16:47;;;;;;;10.65;7.97;;;;;;;-2.87;68.06;94198.25;5006685;28;20056;-71
2024/01/09 07:19:13;;;;;;;8.48;6.80;;;;;;;-3.48;68.44;94174.22;5005095;28;20033;-71
2024/01/09 07:21:38;;;;;;;11.40;7.38;;;;;;;-2.97;69.66;94233.63;5009558;28;20649;-70
2024/01/09 07:24:04;;;;;;;9.63;7.13;;;;;;;-2.77;69.22;94240.19;5006973;28;20607;-74
2024/01/09 07:26:30;;;;;;;8.75;7.72;;;;;;;-2.55;67.73;94244.91;5009783;28;20030;-75
2024/01/09 07:28:55;;;;;;;11.20;8.23;;;;;;;-2.55;67.55;94224.09;5018558;28;20032;-73
2024/01/09 07:31:21;;;;;;;8.63;7.15;;;;;;;-2.77;67.68;94244.59;5020363;28;20337;-73
2024/01/09 07:33:46;;;;;;;9.07;6.97;;;;;;;-3.03;67.22;94242.34;5015252;28;20090;-72
2024/01/09 07:36:12;;;;;;;7.97;6.72;;;;;;;-3.90;69.21;94244.19;5017509;28;20103;-73
2024/01/09 07:38:38;;;;;;;10.05;7.40;;;;;;;-4.17;71.85;94253.22;4909819;28;20059;-72
2024/01/09 07:41:03;;;;;;;9.00;8.02;;;;;;;-4.58;72.43;94233.72;4959157;28;20051;-73
2024/01/09 07:43:29;;;;;;;10.88;7.38;;;;;;;-4.65;73.36;94253.75;5008877;28;20132;-71
2024/01/09 07:45:55;;;;;;;9.80;7.53;;;;;;;-4.75;74.17;94255.19;4995329;28;23858;-71
2024/01/09 07:48:20;;;;;;;11.57;8.77;;;;;;;-4.87;74.34;94257.63;4918108;28;20394;-71
2024/01/09 07:50:46;;;;;;;14.20;9.23;;;;;;;-4.98;75.09;94260.91;5022653;28;20056;-71
2024/01/09 07:53:11;;;;;;;10.70;8.90;;;;;;;-5.13;75.06;94237.03;5040195;28;20454;-72
2024/01/09 07:55:37;;;;;;;12.23;9.27;;;;;;;-5.11;75.20;94245.38;5031348;28;20472;-72
2024/01/09 07:58:06;;;;;;;11.98;9.18;;;;;;;-4.74;74.86;94260.19;5036067;28;20568;-73
2024/01/09 08:00:33;;;;;;;14.05;9.52;;;;;;;-4.86;74.70;94264.44;5035476;28;20044;-72
2024/01/09 08:02:59;;;;;;;12.00;8.23;;;;;;;-5.07;75.16;94277.69;5024214;28;20040;-72
2024/01/09 08:05:24;;;;;;;12.82;9.13;;;;;;;-5.08;75.24;94276.09;5014111;28;20040;-72
2024/01/09 08:07:49;;;;;;;12.90;10.05;;;;;;;-4.97;76.17;94283.22;4988057;28;20049;-71
2024/01/09 08:10:16;;;;;;;10.60;8.88;;;;;;;-4.76;75.46;94282.16;4984180;28;20044;-72
2024/01/09 08:12:42;;;;;;;12.23;9.40;;;;;;;-4.66;74.24;94282.50;5053984;28;20078;-70
2024/01/09 08:15:07;;;;;;;13.63;9.27;;;;;;;-4.74;73.77;94267.16;5051294;28;20139;-73
2024/01/09 08:17:33;;;;;;;13.65;9.60;;;;;;;-4.97;73.84;94271.06;5038496;28;20612;-74
2024/01/09 08:19:58;;;;;;;11.52;7.95;;;;;;;-4.72;73.89;94276.31;5059187;28;20036;-73
2024/01/09 08:22:25;;;;;;;13.38;9.32;;;;;;;-4.54;72.62;94284.22;5049363;28;20056;-72
2024/01/09 08:24:50;;;;;;;13.02;9.35;;;;;;;-4.29;71.52;94291.28;5069558;28;20101;-73
2024/01/09 08:27:15;;;;;;;14.98;8.55;;;;;;;-4.65;71.98;94261.53;5064585;28;20057;-73
2024/01/09 08:29:43;;;;;;;14.18;8.68;;;;;;;-4.49;71.86;94292.16;5059112;28;20040;-73
2024/01/09 08:32:11;;;;;;;11.25;8.45;;;;;;;-4.49;72.40;94289.56;5054560;28;20046;-71
2024/01/09 08:34:36;;;;;;;11.30;7.47;;;;;;;-4.32;71.18;94300.28;5054325;28;20127;-72
2024/01/09 08:37:02;;;;;;;16.88;7.15;;;;;;;-4.22;70.68;94298.00;5059441;28;20099;-72
2024/01/09 08:39:28;;;;;;;10.80;7.95;;;;;;;-4.13;69.72;94301.16;5055680;28;20064;-72
2024/01/09 08:41:53;;;;;;;12.30;8.75;;;;;;;-4.23;69.88;94313.81;5057718;28;20024;-73
2024/01/09 08:44:19;;;;;;;9.82;7.25;;;;;;;-4.35;69.91;94289.53;5055706;28;20064;-73
2024/01/09 08:46:44;;;;;;;13.27;9.25;;;;;;;-4.48;71.10;94298.97;5056878;28;20600;-73
2024/01/09 08:49:11;;;;;;;11.05;8.43;;;;;;;-3.98;70.65;94309.44;5055170;28;20047;-72
2024/01/09 08:51:36;;;;;;;13.35;8.52;;;;;;;-3.63;69.52;94302.75;5064888;28;20313;-74
2024/01/09 08:54:03;;;;;;;11.95;7.70;;;;;;;-3.54;67.86;94299.88;5058810;28;20032;-73
2024/01/09 08:56:28;;;;;;;13.43;8.38;;;;;;;-3.11;66.92;94303.25;5056427;28;20044;-72
2024/01/09 08:58:53;;;;;;;11.38;7.80;;;;;;;-3.06;66.45;94298.19;5057810;28;20048;-72
2024/01/09 09:01:20;;;;;;;8.55;7.53;;;;;;;-3.05;65.69;94299.00;5058071;28;20044;-72
2024/01/09 09:03:46;;;;;;;9.27;7.50;;;;;;;-2.73;65.27;94303.81;5040804;28;20056;-74
2024/01/09 09:06:12;;;;;;;9.13;6.97;;;;;;;-2.88;65.54;94300.81;5026881;28;20028;-72
2024/01/09 09:08:39;;;;;;;12.43;6.78;;;;;;;-2.75;65.05;94305.84;5042187;28;20044;-72
2024/01/09 09:11:06;;;;;;;10.73;8.13;;;;;;;-2.90;64.65;94296.81;5055940;28;20094;-72
2024/01/09 09:13:32;;;;;;;10.65;8.40;;;;;;;-2.85;64.99;94313.38;5055593;28;20613;-72
2024/01/09 09:15:57;;;;;;;9.85;8.27;;;;;;;-2.92;65.45;94317.06;5058372;28;20040;-73
2024/01/09 09:18:22;;;;;;;9.85;7.13;;;;;;;-3.20;65.29;94325.38;5056440;28;20540;-72
2024/01/09 09:20:48;;;;;;;11.75;8.63;;;;;;;-3.43;66.32;94320.00;5059032;28;20049;-73
2024/01/09 09:23:13;;;;;;;8.85;6.15;;;;;;;-3.60;65.81;94315.31;5055990;28;20183;-72
2024/01/09 09:25:39;;;;;;;9.13;6.85;;;;;;;-3.47;65.33;94318.84;5056079;28;20625;-73
2024/01/09 09:28:04;;;;;;;9.73;6.60;;;;;;;-3.37;65.43;94317.34;5059045;28;20333;-72
2024/01/09 09:30:30;;;;;;;15.18;8.48;;;;;;;-2.79;64.84;94322.94;5054614;28;20025;-72
2024/01/09 09:32:58;;;;;;;9.88;6.82;;;;;;;-3.05;63.13;94310.19;5056871;28;20016;-73
2024/01/09 09:35:23;;;;;;;7.80;6.18;;;;;;;-2.58;63.28;94320.91;5038451;28;20036;-72
2024/01/09 09:37:49;;;;;;;8.75;6.25;;;;;;;-2.54;62.05;94311.63;5056754;28;20053;-72
2024/01/09 09:40:14;;;;;;;9.95;6.78;;;;;;;-2.33;61.96;94303.31;5037398;28;20049;-72
2024/01/09 09:42:42;;;;;;;9.65;7.95;;;;;;;-2.36;59.89;94298.56;5053511;28;20044;-72
2024/01/09 09:45:13;;;;;;;7.65;6.93;;;;;;;-2.80;60.68;94310.94;5035396;28;20028;-72
2024/01/09 09:47:40;;;;;;;9.93;6.47;;;;;;;-2.66;61.08;94297.75;5060010;28;20400;-72
2024/01/09 09:50:09;;;;;;;7.60;5.88;;;;;;;-2.36;59.81;94319.41;5057800;28;20068;-72
2024/01/09 09:52:37;;;;;;;7.32;5.65;;;;;;;-3.06;60.32;94308.59;5073405;28;20077;-72
2024/01/09 09:55:03;;;;;;;25.73;12.60;;;;;;;-3.15;61.66;94315.09;5058853;28;20182;-72
2024/01/09 09:57:29;;;;;;;247.75;90.97;;;;;;;-3.18;61.98;94310.34;5039533;28;20579;-72
2024/01/09 09:59:54;;;;;;;12.85;7.80;;;;;;;-2.74;62.07;94307.47;5052256;28;20503;-71
2024/01/09 10:02:26;;;;;;;7.60;6.60;;;;;;;-2.95;61.50;94315.69;5059774;28;20055;-73
2024/01/09 10:04:53;;;;;;;7.38;5.38;;;;;;;-3.59;61.72;94303.94;5059598;28;20054;-72
2024/01/09 10:07:22;;;;;;;7.68;5.57;;;;;;;-3.38;61.83;94315.75;5059504;28;20032;-71
2024/01/09 10:09:53;;;;;;;11.70;7.35;;;;;;;-3.66;62.87;94313.56;5059185;28;22030;-72
2024/01/09 10:12:22;;;;;;;7.00;6.13;;;;;;;-3.58;62.02;94302.91;5060207;28;20055;-71
2024/01/09 10:15:07;;;;;;;7.32;6.05;;;;;;;-3.21;61.30;94311.56;5059242;28;20113;-72
2024/01/09 10:17:33;;;;;;;8.30;6.13;;;;;;;-3.48;61.14;94306.84;5055719;28;20056;-72
2024/01/09 10:19:58;;;;;;;9.77;7.10;;;;;;;-3.42;61.70;94308.59;5062213;28;20265;-71
2024/01/09 10:22:28;;;;;;;10.48;7.32;;;;;;;-3.60;61.48;94304.13;5044650;28;20052;-71
2024/01/09 10:24:53;;;;;;;10.10;6.72;;;;;;;-3.52;61.37;94322.06;5073556;28;20132;-72
2024/01/09 10:27:21;;;;;;;11.23;7.90;;;;;;;-3.37;61.01;94329.53;5060836;28;20052;-72
2024/01/09 10:29:46;;;;;;;9.68;6.95;;;;;;;-3.02;60.65;94329.81;5053748;28;20047;-71
2024/01/09 10:32:17;;;;;;;9.23;6.47;;;;;;;-3.21;60.29;94324.56;5058300;28;20060;-70
2024/01/09 10:34:43;;;;;;;8.73;6.63;;;;;;;-3.62;61.41;94332.97;5060474;28;20054;-70
2024/01/09 10:37:09;;;;;;;12.55;8.40;;;;;;;-3.71;62.47;94336.81;5056836;28;20509;-71
2024/01/09 10:39:35;;;;;;;13.20;8.52;;;;;;;-4.22;63.23;94344.75;5053368;28;20039;-71
2024/01/09 10:42:06;;;;;;;14.20;8.95;;;;;;;-3.78;63.82;94341.28;5057362;28;20020;-70
2024/01/09 10:44:32;;;;;;;15.05;9.68;;;;;;;-3.80;61.93;94334.69;5053768;28;20032;-72
2024/01/09 10:46:59;;;;;;;17.17;11.10;;;;;;;-4.07;63.65;94347.06;5054134;28;20048;-71
2024/01/09 10:49:25;;;;;;;14.32;9.45;;;;;;;-4.02;63.66;94355.03;5034792;28;20063;-74
2024/01/09 10:51:52;;;;;;;24.15;10.95;;;;;;;-4.62;64.71;94343.38;5068881;27;20190;-70
2024/01/09 10:54:20;;;;;;;18.27;11.55;;;;;;;-4.60;65.96;94367.34;5053934;28;20126;-70
2024/01/09 10:56:48;;;;;;;17.23;9.98;;;;;;;-4.36;65.67;94368.41;5053724;28;20036;-71
2024/01/09 10:59:14;;;;;;;19.60;13.32;;;;;;;-4.18;64.54;94350.34;5043520;28;20044;-71
2024/01/09 11:01:40;;;;;;;18.17;11.93;;;;;;;-4.12;63.12;94376.28;5054704;28;20036;-71
2024/01/09 11:04:07;;;;;;;17.15;11.35;;;;;;;-4.16;64.11;94380.31;5039281;28;20067;-71
2024/01/09 11:06:41;;;;;;;18.23;11.57;;;;;;;-4.43;64.10;94389.22;5041621;28;20028;-71
2024/01/09 11:09:08;;;;;;;16.45;10.57;;;;;;;-5.12;65.47;94371.66;5057938;28;20039;-70
2024/01/09 11:11:36;;;;;;;15.75;11.18;;;;;;;-5.13;66.11;94366.69;5052277;28;20619;-71
2024/01/09 11:14:08;;;;;;;18.80;10.60;;;;;;;-4.64;65.88;94392.91;5038321;28;20040;-70
2024/01/09 11:16:42;;;;;;;15.25;10.55;;;;;;;-4.64;64.83;94372.16;5052538;28;20651;-72
2024/01/09 11:19:11;;;;;;;18.33;11.82;;;;;;;-4.54;65.24;94398.44;5054888;28;20525;-72
2024/01/09 11:21:37;;;;;;;17.10;11.25;;;;;;;-4.41;64.55;94376.03;5044994;28;20648;-72
2024/01/09 11:24:03;;;;;;;17.95;11.98;;;;;;;-4.43;64.10;94373.63;5050123;28;20028;-71